Terminal Aerodrome Forecast
Issued by NWS Cleveland, OH

Home | Current Version | Previous Version | Graphics & Text | Print | Product List | Glossary On
Versions: 1 2 3 4 5 6 7 8 9 10 11 12 13 14 15 16
000
FTUS41 KCLE 030531
TAFCAK
TAF
KCAK 030531Z 0306/0406 22012G20KT P6SM BKN100
      TEMPO 0307/0310 3SM SHRA OVC035
     FM031200 26010KT P6SM BKN035
     FM031900 28010KT P6SM SCT035 PROB30 0319/0323 3SM TSRA OVC025CB
     FM032300 28006KT P6SM BKN250=

USA.gov is the U.S. government's official web portal to all federal, state and local government web resources and services.